SIA830 WSSS-ZSPD
Flight info
| Callsign | SIA830 |
|---|---|
| Flight time | N/A |
| Altitude | 36000 |
| Route | VMR9B VMR M771 DUDIS/K0945F360 M771 NITOM/K0932F390 M771 DOSUT/N0504F380 M771 DULOP/N0504F390 M771 DUMOL/N0505F380 J103 BEKOL/K0935S1160 A461 SHL/K0933S1190 G471 EGEDA/K0939S1160 G471 PLT/K0937S1190 A599 ELNEX G204 SHZ W58 BK BK91A |
| Aircraft | A388/J-SADE2E3FGHIJ3J4J5M1RWXY/LB1D1 |
Departure
| Time | 2026-05-04 08:20 |
|---|---|
| Airport | Singapore Changi Airport (WSSS) |
Arrival
| Time | N/A |
|---|---|
| Airport | Shanghai Pudong International Airport (ZSPD) |
| Time | Latitude | Longitude | Altitude | Speed | Heading |
|---|---|---|---|---|---|
| 2026-05-04 08:08 | 1.36441 | 103.99521 | 35 ft | 0 kts | 294° |
| 2026-05-04 08:12 | 1.36439 | 103.99523 | 35 ft | 1 kts | 294° |
| 2026-05-04 08:13 | 1.36436 | 103.99531 | 35 ft | 1 kts | 294° |
| 2026-05-04 08:13 | 1.36431 | 103.99542 | 33 ft | 2 kts | 295° |
| 2026-05-04 08:13 | 1.36420 | 103.99564 | 34 ft | 4 kts | 298° |
| 2026-05-04 08:13 | 1.36402 | 103.99583 | 31 ft | 4 kts | 340° |
| 2026-05-04 08:14 | 1.36386 | 103.99579 | 32 ft | 0 kts | 25° |
| 2026-05-04 08:16 | 1.36390 | 103.99581 | 32 ft | 2 kts | 25° |
| 2026-05-04 08:16 | 1.36422 | 103.99596 | 34 ft | 8 kts | 25° |
| 2026-05-04 08:16 | 1.36469 | 103.99632 | 35 ft | 7 kts | 78° |
| 2026-05-04 08:17 | 1.36453 | 103.99696 | 35 ft | 12 kts | 112° |
| 2026-05-04 08:17 | 1.36419 | 103.99780 | 35 ft | 11 kts | 112° |
| 2026-05-04 08:17 | 1.36410 | 103.99801 | 35 ft | 0 kts | 112° |
| 2026-05-04 08:19 | 1.36139 | 103.99873 | 35 ft | 34 kts | 202° |
| 2026-05-04 08:19 | 1.35674 | 103.99677 | 35 ft | 108 kts | 202° |
| 2026-05-04 08:20 | 1.34805 | 103.99310 | 36 ft | 158 kts | 202° |
| 2026-05-04 08:20 | 1.33733 | 103.98864 | 356 ft | 166 kts | 205° |
| 2026-05-04 08:20 | 1.32665 | 103.98417 | 762 ft | 172 kts | 204° |
| 2026-05-04 08:20 | 1.31555 | 103.97949 | 1211 ft | 175 kts | 204° |
| 2026-05-04 08:21 | 1.30381 | 103.97450 | 1465 ft | 191 kts | 204° |
| 2026-05-04 08:21 | 1.29099 | 103.96902 | 1639 ft | 213 kts | 204° |